createdAt,value
2018-09-05T00:01:06.182Z,101884.47
2018-09-05T00:04:10.411Z,101874.79
2018-09-05T00:07:14.689Z,101876.72
2018-09-05T00:10:18.928Z,101875.64
2018-09-05T00:13:23.157Z,101882.48
2018-09-05T00:16:27.397Z,101875.93
2018-09-05T00:19:31.636Z,101876.78
2018-09-05T00:22:35.845Z,101882.78
2018-09-05T00:25:40.133Z,101882.94
2018-09-05T00:28:44.377Z,101874.43
2018-09-05T00:31:48.648Z,101876.33
2018-09-05T00:34:52.906Z,101883.69
2018-09-05T00:37:57.165Z,101874.95
2018-09-05T00:41:01.410Z,101875.18
2018-09-05T00:44:05.806Z,101883.00
2018-09-05T00:47:10.058Z,101875.99
2018-09-05T00:50:14.309Z,101870.52
2018-09-05T00:53:18.556Z,101870.39
2018-09-05T00:56:22.797Z,101870.45
2018-09-05T00:59:27.037Z,101873.42
2018-09-05T01:02:31.265Z,101872.50
2018-09-05T01:05:35.538Z,101872.73
2018-09-05T01:08:39.791Z,101871.07
2018-09-05T01:11:44.029Z,101870.74
2018-09-05T01:14:48.529Z,101867.26
2018-09-05T01:17:52.761Z,101863.67
2018-09-05T01:20:56.984Z,101862.86
2018-09-05T01:24:01.238Z,101868.56
2018-09-05T01:27:05.505Z,101867.32
2018-09-05T01:30:09.766Z,101871.66
2018-09-05T01:33:14.018Z,101876.44
2018-09-05T01:36:19.169Z,101867.77
2018-09-05T01:39:23.473Z,101869.59
2018-09-05T01:42:27.706Z,101870.85
2018-09-05T01:45:31.954Z,101874.04
2018-09-05T01:48:36.647Z,101870.84
2018-09-05T01:51:41.272Z,101868.78
2018-09-05T01:54:45.501Z,101866.27
2018-09-05T01:57:49.755Z,101878.28
2018-09-05T02:00:53.988Z,101869.45
2018-09-05T02:03:58.229Z,101869.16
2018-09-05T02:07:02.465Z,101869.05
2018-09-05T02:10:06.749Z,101864.36
2018-09-05T02:13:10.990Z,101865.10
2018-09-05T02:16:15.360Z,101867.95
2018-09-05T02:19:19.581Z,101862.42
2018-09-05T02:22:23.862Z,101866.97
2018-09-05T02:25:28.108Z,101868.48
2018-09-05T02:28:32.352Z,101869.12
2018-09-05T02:31:36.633Z,101870.56
2018-09-05T02:34:40.841Z,101870.87
2018-09-05T02:37:45.125Z,101868.28
2018-09-05T02:40:49.388Z,101872.05
2018-09-05T02:43:58.722Z,101873.64
2018-09-05T02:47:03.005Z,101876.08
2018-09-05T02:50:07.236Z,101879.55
2018-09-05T02:53:11.505Z,101875.56
2018-09-05T02:56:15.728Z,101877.67
2018-09-05T02:59:19.954Z,101869.39
2018-09-05T03:02:24.210Z,101871.20
2018-09-05T03:05:28.470Z,101875.71
2018-09-05T03:08:32.729Z,101873.75
2018-09-05T03:11:37.014Z,101868.72
2018-09-05T03:14:41.237Z,101875.66
2018-09-05T03:17:45.628Z,101871.71
2018-09-05T03:20:49.878Z,101871.94
2018-09-05T03:23:54.141Z,101874.55
2018-09-05T03:26:58.371Z,101876.47
2018-09-05T03:30:02.722Z,101876.69
2018-09-05T03:33:07.253Z,101879.42
2018-09-05T03:36:11.494Z,101879.86
2018-09-05T03:39:15.728Z,101879.86
2018-09-05T03:42:20.000Z,101885.92
2018-09-05T03:45:24.233Z,101888.36
2018-09-05T03:48:28.511Z,101892.45
2018-09-05T03:51:32.752Z,101893.19
2018-09-05T03:54:36.988Z,101892.05
2018-09-05T03:57:41.258Z,101894.18
2018-09-05T04:00:45.458Z,101895.65
2018-09-05T04:03:49.704Z,101894.20
2018-09-05T04:06:53.956Z,101891.98
2018-09-05T04:09:58.241Z,101896.00
2018-09-05T04:13:02.458Z,101898.11
2018-09-05T04:16:06.869Z,101899.39
2018-09-05T04:19:11.088Z,101899.27
2018-09-05T04:22:15.331Z,101900.86
2018-09-05T04:25:19.597Z,101901.08
2018-09-05T04:28:24.090Z,101902.88
2018-09-05T04:31:28.328Z,101903.02
2018-09-05T04:34:32.609Z,101904.81
2018-09-05T04:37:36.825Z,101901.96
2018-09-05T04:40:41.121Z,101910.37
2018-09-05T04:43:45.341Z,101917.11
2018-09-05T04:46:49.580Z,101912.81
2018-09-05T04:49:53.772Z,101913.03
2018-09-05T04:52:58.021Z,101922.58
2018-09-05T04:56:02.262Z,101921.73
2018-09-05T04:59:06.573Z,101922.06
2018-09-05T05:02:10.795Z,101925.95
2018-09-05T05:05:15.020Z,101926.47
2018-09-05T05:08:19.294Z,101921.22
2018-09-05T05:11:23.532Z,101926.05
2018-09-05T05:14:27.805Z,101921.00
2018-09-05T05:17:32.042Z,101926.25
2018-09-05T05:20:36.311Z,101931.80
2018-09-05T05:23:40.621Z,101927.91
2018-09-05T05:26:44.792Z,101927.91
2018-09-05T05:29:49.032Z,101926.75
2018-09-05T05:32:53.340Z,101931.91
2018-09-05T05:35:57.557Z,101933.65
2018-09-05T05:39:01.981Z,101937.95
2018-09-05T05:42:06.229Z,101933.20
2018-09-05T05:45:10.505Z,101932.75
2018-09-05T05:48:14.742Z,101931.98
2018-09-05T05:51:18.960Z,101934.07
2018-09-05T05:54:23.204Z,101936.77
2018-09-05T05:57:27.744Z,101937.05
2018-09-05T06:00:31.956Z,101936.80
2018-09-05T06:03:36.377Z,101937.28
2018-09-05T06:06:40.625Z,101944.06
2018-09-05T06:09:45.143Z,101939.95
2018-09-05T06:12:49.486Z,101936.45
2018-09-05T06:15:54.222Z,101943.84
2018-09-05T06:18:59.649Z,101946.09
2018-09-05T06:22:03.925Z,101945.16
2018-09-05T06:25:08.515Z,101940.58
2018-09-05T06:28:13.658Z,101945.57
2018-09-05T06:31:18.450Z,101948.27
2018-09-05T06:34:23.381Z,101946.32
2018-09-05T06:37:28.246Z,101947.04
2018-09-05T06:40:32.649Z,101944.00
2018-09-05T06:43:37.208Z,101945.72
2018-09-05T06:46:43.245Z,101949.91
2018-09-05T06:49:47.957Z,101943.65
2018-09-05T06:52:53.172Z,101949.02
2018-09-05T06:55:57.484Z,101938.25
2018-09-05T06:59:02.600Z,101950.50
2018-09-05T07:02:07.761Z,101952.72
2018-09-05T07:05:12.619Z,101948.85
2018-09-05T07:08:17.451Z,101944.96
2018-09-05T07:11:23.372Z,101945.94
2018-09-05T07:14:27.770Z,101952.95
2018-09-05T07:17:32.306Z,101950.03
2018-09-05T07:20:36.764Z,101946.78
2018-09-05T07:23:41.159Z,101948.83
2018-09-05T07:26:45.420Z,101954.61
2018-09-05T07:29:49.632Z,101956.50
2018-09-05T07:32:53.909Z,101955.63
2018-09-05T07:35:58.137Z,101955.30
2018-09-05T07:39:02.370Z,101953.40
2018-09-05T07:42:06.629Z,101953.72
2018-09-05T07:45:10.869Z,101955.36
2018-09-05T07:48:15.122Z,101952.81
2018-09-05T07:51:19.622Z,101948.59
2018-09-05T07:54:23.870Z,101952.37
2018-09-05T07:57:28.952Z,101955.04
2018-09-05T08:00:33.182Z,101942.66
2018-09-05T08:03:37.469Z,101953.55
2018-09-05T08:06:41.759Z,101950.67
2018-09-05T08:09:45.984Z,101952.75
2018-09-05T08:12:51.425Z,101952.94
2018-09-05T08:15:55.685Z,101955.36
2018-09-05T08:19:00.038Z,101953.57
2018-09-05T08:22:04.260Z,101958.39
2018-09-05T08:25:08.492Z,101953.75
2018-09-05T08:28:12.689Z,101957.44
2018-09-05T08:31:16.970Z,101956.94
2018-09-05T08:34:21.430Z,101955.36
2018-09-05T08:37:25.830Z,101945.02
2018-09-05T08:40:29.998Z,101938.73
2018-09-05T08:43:34.286Z,101947.47
2018-09-05T08:46:38.453Z,101945.39
2018-09-05T08:49:42.668Z,101948.27
2018-09-05T08:52:46.967Z,101942.33
2018-09-05T08:55:51.175Z,101949.30
2018-09-05T08:58:55.486Z,101950.73
2018-09-05T09:01:59.682Z,101948.11
2018-09-05T09:05:03.959Z,101953.77
2018-09-05T09:08:08.189Z,101956.06
2018-09-05T09:11:12.450Z,101952.48
2018-09-05T09:14:16.653Z,101952.26
2018-09-05T09:17:52.333Z,101956.09
2018-09-05T09:20:56.580Z,101956.28
2018-09-05T09:24:01.073Z,101948.42
2018-09-05T09:27:05.269Z,101951.45
2018-09-05T09:30:09.495Z,101952.52
2018-09-05T09:33:13.714Z,101948.10
2018-09-05T09:36:17.964Z,101940.44
2018-09-05T09:39:22.202Z,101941.64
2018-09-05T09:42:26.432Z,101933.09
2018-09-05T09:45:30.810Z,101935.66
2018-09-05T09:48:35.020Z,101931.35
2018-09-05T09:51:39.249Z,101931.47
2018-09-05T09:54:43.513Z,101915.48
2018-09-05T09:57:47.736Z,101917.47
2018-09-05T10:00:57.109Z,101913.92
2018-09-05T10:04:06.548Z,101920.02
2018-09-05T10:07:16.163Z,101918.13
2018-09-05T10:10:25.636Z,101913.98
2018-09-05T10:13:35.273Z,101913.16
2018-09-05T10:16:41.873Z,101915.66
2018-09-05T10:19:50.229Z,101915.92
2018-09-05T10:22:54.474Z,101916.75
2018-09-05T10:25:58.750Z,101917.33
2018-09-05T10:29:02.980Z,101909.01
2018-09-05T10:32:07.208Z,101908.44
2018-09-05T10:35:11.457Z,101911.78
2018-09-05T10:38:15.697Z,101913.69
2018-09-05T10:41:19.895Z,101911.73
2018-09-05T10:44:24.228Z,101910.88
2018-09-05T10:47:28.393Z,101910.84
2018-09-05T10:50:32.624Z,101905.03
2018-09-05T10:53:36.992Z,101902.24
2018-09-05T10:56:41.230Z,101899.51
2018-09-05T10:59:45.466Z,101897.64
2018-09-05T11:02:49.677Z,101886.81
2018-09-05T11:05:53.939Z,101880.73
2018-09-05T11:08:58.185Z,101877.94
2018-09-05T11:12:02.441Z,101875.17
2018-09-05T11:15:06.873Z,101883.77
2018-09-05T11:18:11.084Z,101875.19
2018-09-05T11:21:15.370Z,101874.91
2018-09-05T11:24:19.571Z,101869.34
2018-09-05T11:27:23.821Z,101861.84
2018-09-05T11:30:28.030Z,101866.27
2018-09-05T11:33:32.314Z,101864.60
2018-09-05T11:36:36.525Z,101863.23
2018-09-05T11:39:40.745Z,101869.09
2018-09-05T11:42:45.020Z,101866.58
2018-09-05T11:45:49.236Z,101863.55
2018-09-05T11:48:53.458Z,101866.03
2018-09-05T11:51:57.681Z,101869.62
2018-09-05T11:55:01.915Z,101863.55
2018-09-05T11:58:06.118Z,101866.05
2018-09-05T12:01:10.385Z,101869.64
2018-09-05T12:04:14.646Z,101865.48
2018-09-05T12:07:18.913Z,101867.67
2018-09-05T12:10:23.166Z,101864.34
2018-09-05T12:13:27.461Z,101860.73
2018-09-05T12:16:32.186Z,101859.39
2018-09-05T12:19:36.416Z,101852.73
2018-09-05T12:22:40.673Z,101854.41
2018-09-05T12:25:44.953Z,101848.02
2018-09-05T12:28:49.175Z,101846.37
2018-09-05T12:31:53.409Z,101843.84
2018-09-05T12:34:57.626Z,101841.89
2018-09-05T12:38:01.832Z,101848.81
2018-09-05T12:41:06.036Z,101850.45
2018-09-05T12:44:10.852Z,101842.97
2018-09-05T12:47:15.090Z,101839.62
2018-09-05T12:50:19.343Z,101835.73
2018-09-05T12:53:23.546Z,101829.92
2018-09-05T12:56:28.565Z,101826.31
2018-09-05T12:59:32.774Z,101826.61
2018-09-05T13:02:37.001Z,101831.30
2018-09-05T13:05:41.207Z,101831.88
2018-09-05T13:08:45.436Z,101831.00
2018-09-05T13:11:49.668Z,101827.95
2018-09-05T13:14:53.939Z,101829.59
2018-09-05T13:17:58.120Z,101830.48
2018-09-05T13:21:03.114Z,101827.41
2018-09-05T13:24:07.331Z,101827.96
2018-09-05T13:27:11.729Z,101831.29
2018-09-05T13:30:15.993Z,101822.69
2018-09-05T13:33:20.257Z,101821.31
2018-09-05T13:36:24.465Z,101824.64
2018-09-05T13:39:29.067Z,101821.60
2018-09-05T13:42:33.669Z,101816.31
2018-09-05T13:45:37.906Z,101824.07
2018-09-05T13:48:42.121Z,101813.26
2018-09-05T13:51:50.446Z,101806.86
2018-09-05T13:54:54.669Z,101813.47
2018-09-05T13:57:58.894Z,101804.88
2018-09-05T14:01:03.111Z,101808.77
2018-09-05T14:04:07.496Z,101813.25
2018-09-05T14:07:11.705Z,101803.29
2018-09-05T14:10:16.901Z,101801.88
2018-09-05T14:13:21.145Z,101804.36
2018-09-05T14:16:25.364Z,101806.27
2018-09-05T14:19:29.588Z,101790.73
2018-09-05T14:22:33.809Z,101797.67
2018-09-05T14:25:38.060Z,101787.69
2018-09-05T14:28:42.260Z,101785.52
2018-09-05T14:31:46.456Z,101780.23
2018-09-05T14:34:50.674Z,101786.87
2018-09-05T14:37:54.881Z,101784.34
2018-09-05T14:40:59.091Z,101785.47
2018-09-05T14:44:03.345Z,101779.06
2018-09-05T14:47:08.385Z,101775.77
2018-09-05T14:50:12.630Z,101774.09
2018-09-05T14:53:16.894Z,101777.10
2018-09-05T14:56:21.113Z,101769.58
2018-09-05T14:59:25.362Z,101764.84
2018-09-05T15:02:29.559Z,101762.03
2018-09-05T15:05:33.773Z,101758.13
2018-09-05T15:08:38.000Z,101757.84
2018-09-05T15:11:42.401Z,101762.27
2018-09-05T15:14:46.597Z,101754.46
2018-09-05T15:17:50.827Z,101754.17
2018-09-05T15:20:55.061Z,101753.28
2018-09-05T15:23:59.275Z,101751.92
2018-09-05T15:27:03.472Z,101751.60
2018-09-05T15:30:08.813Z,101750.70
2018-09-05T15:33:13.044Z,101751.22
2018-09-05T15:36:17.237Z,101750.56
2018-09-05T15:39:21.494Z,101748.85
2018-09-05T15:42:25.667Z,101743.22
2018-09-05T15:45:30.402Z,101744.45
2018-09-05T15:48:34.617Z,101746.09
2018-09-05T15:51:38.813Z,101742.14
2018-09-05T15:54:43.028Z,101736.80
2018-09-05T15:57:47.238Z,101735.59
2018-09-05T16:00:51.461Z,101737.94
2018-09-05T16:03:55.762Z,101740.88
2018-09-05T16:06:59.958Z,101741.20
2018-09-05T16:10:04.178Z,101737.95
2018-09-05T16:13:08.489Z,101733.30
2018-09-05T16:16:12.696Z,101732.69
2018-09-05T16:19:16.961Z,101725.50
2018-09-05T16:22:21.196Z,101723.17
2018-09-05T16:25:25.393Z,101722.70
2018-09-05T16:28:29.596Z,101712.59
2018-09-05T16:31:33.797Z,101712.95
2018-09-05T16:34:37.987Z,101715.47
2018-09-05T16:37:42.243Z,101713.11
2018-09-05T16:40:46.462Z,101714.95
2018-09-05T16:43:50.672Z,101713.97
2018-09-05T16:46:54.885Z,101718.44
2018-09-05T16:49:59.124Z,101713.52
2018-09-05T16:53:03.332Z,101716.38
2018-09-05T16:56:07.737Z,101718.88
2018-09-05T16:59:11.956Z,101715.86
2018-09-05T17:02:16.192Z,101718.09
2018-09-05T17:05:20.422Z,101707.58
2018-09-05T17:08:24.625Z,101710.89
2018-09-05T17:11:28.848Z,101713.95
2018-09-05T17:14:33.069Z,101705.91
2018-09-05T17:17:37.301Z,101715.82
2018-09-05T17:20:41.536Z,101718.31
2018-09-05T17:23:45.762Z,101715.25
2018-09-05T17:26:49.973Z,101720.73
2018-09-05T17:29:54.242Z,101720.72
2018-09-05T17:32:58.433Z,101728.46
2018-09-05T17:36:02.654Z,101727.59
2018-09-05T17:39:10.002Z,101728.38
2018-09-05T17:42:14.209Z,101730.31
2018-09-05T17:45:18.429Z,101725.87
2018-09-05T17:48:22.649Z,101726.61
2018-09-05T17:51:26.853Z,101729.65
2018-09-05T17:54:31.062Z,101731.80
2018-09-05T17:57:35.385Z,101735.91
2018-09-05T18:00:39.696Z,101732.00
2018-09-05T18:03:43.889Z,101731.12
2018-09-05T18:06:48.089Z,101723.63
2018-09-05T18:09:52.303Z,101723.86
2018-09-05T18:12:56.579Z,101722.17
2018-09-05T18:16:00.844Z,101723.81
2018-09-05T18:19:05.081Z,101722.08
2018-09-05T18:22:09.289Z,101717.89
2018-09-05T18:25:13.498Z,101719.80
2018-09-05T18:28:17.714Z,101714.47
2018-09-05T18:31:21.983Z,101705.86
2018-09-05T18:34:26.173Z,101703.63
2018-09-05T18:37:30.370Z,101707.13
2018-09-05T18:40:34.629Z,101711.22
2018-09-05T18:43:38.858Z,101714.70
2018-09-05T18:46:43.113Z,101708.86
2018-09-05T18:49:47.335Z,101711.30
2018-09-05T18:52:55.631Z,101713.19
2018-09-05T18:55:59.817Z,101709.31
2018-09-05T18:59:04.031Z,101714.52
2018-09-05T19:02:08.388Z,101717.73
2018-09-05T19:05:12.605Z,101712.98
2018-09-05T19:08:16.885Z,101711.50
2018-09-05T19:11:21.050Z,101721.67
2018-09-05T19:14:25.292Z,101710.87
2018-09-05T19:17:29.477Z,101705.06
2018-09-05T19:20:33.700Z,101711.89
2018-09-05T19:23:37.897Z,101704.14
2018-09-05T19:26:42.140Z,101709.60
2018-09-05T19:29:46.361Z,101709.30
2018-09-05T19:32:50.577Z,101704.00
2018-09-05T19:35:54.801Z,101705.63
2018-09-05T19:38:59.119Z,101707.20
2018-09-05T19:42:03.355Z,101702.52
2018-09-05T19:45:07.988Z,101695.29
2018-09-05T19:48:12.190Z,101700.42
2018-09-05T19:51:16.425Z,101695.73
2018-09-05T19:54:20.636Z,101703.39
2018-09-05T19:57:24.833Z,101694.80
2018-09-05T20:00:29.056Z,101694.19
2018-09-05T20:03:33.309Z,101696.33
2018-09-05T20:06:37.518Z,101687.15
2018-09-05T20:09:41.756Z,101687.38
2018-09-05T20:12:45.976Z,101690.08
2018-09-05T20:15:50.386Z,101693.94
2018-09-05T20:18:54.600Z,101691.44
2018-09-05T20:21:58.885Z,101696.08
2018-09-05T20:25:03.085Z,101697.20
2018-09-05T20:28:07.318Z,101697.42
2018-09-05T20:31:11.573Z,101700.71
2018-09-05T20:34:15.796Z,101700.97
2018-09-05T20:37:20.153Z,101701.75
2018-09-05T20:40:24.458Z,101705.29
2018-09-05T20:43:28.716Z,101699.14
2018-09-05T20:46:33.130Z,101693.61
2018-09-05T20:49:37.328Z,101691.11
2018-09-05T20:52:41.551Z,101686.70
2018-09-05T20:55:45.768Z,101688.87
2018-09-05T20:58:50.140Z,101684.68
2018-09-05T21:01:54.306Z,101687.69
2018-09-05T21:04:58.519Z,101685.19
2018-09-05T21:08:02.769Z,101684.31
2018-09-05T21:11:06.993Z,101674.66
2018-09-05T21:14:11.225Z,101678.20
2018-09-05T21:17:15.489Z,101668.23
2018-09-05T21:20:19.698Z,101671.23
2018-09-05T21:23:23.921Z,101674.23
2018-09-05T21:26:28.183Z,101668.96
2018-09-05T21:29:32.397Z,101667.31
2018-09-05T21:32:36.621Z,101662.59
2018-09-05T21:35:40.905Z,101663.69
2018-09-05T21:38:45.122Z,101664.22
2018-09-05T21:41:49.363Z,101664.47
2018-09-05T21:44:53.596Z,101659.16
2018-09-05T21:47:57.829Z,101661.35
2018-09-05T21:51:02.040Z,101659.39
2018-09-05T21:54:05.920Z,101654.39
2018-09-05T21:57:10.214Z,101655.73
2018-09-05T22:00:14.454Z,101653.77
2018-09-05T22:03:18.701Z,101651.27
2018-09-05T22:06:22.897Z,101655.05
2018-09-05T22:09:27.149Z,101647.30
2018-09-05T22:12:31.457Z,101650.03
2018-09-05T22:15:40.285Z,101652.71
2018-09-05T22:18:44.541Z,101654.66
2018-09-05T22:21:48.765Z,101657.06
2018-09-05T22:24:53.036Z,101659.81
2018-09-05T22:27:57.229Z,101655.69
2018-09-05T22:31:01.449Z,101654.84
2018-09-05T22:34:05.684Z,101654.56
2018-09-05T22:37:09.909Z,101652.84
2018-09-05T22:40:14.096Z,101653.34
2018-09-05T22:43:36.656Z,101660.21
2018-09-05T22:46:58.091Z,101649.50
2018-09-05T22:50:24.140Z,101650.84
2018-09-05T22:54:21.512Z,101647.50
2018-09-05T22:59:56.090Z,101639.50
2018-09-05T23:03:17.470Z,101645.47
2018-09-05T23:07:38.349Z,101638.75
2018-09-05T23:10:59.682Z,101641.18
2018-09-05T23:14:22.842Z,101635.09
2018-09-05T23:17:44.330Z,101630.13
2018-09-05T23:21:23.988Z,101629.25
2018-09-05T23:24:28.181Z,101620.66
2018-09-05T23:27:32.446Z,101616.78
2018-09-05T23:30:36.697Z,101611.26
2018-09-05T23:33:40.906Z,101613.73
2018-09-05T23:36:45.290Z,101612.04
2018-09-05T23:39:49.597Z,101610.91
2018-09-05T23:42:53.817Z,101607.57
2018-09-05T23:45:58.037Z,101607.57
2018-09-05T23:49:02.286Z,101600.42
2018-09-05T23:52:06.745Z,101601.80
2018-09-05T23:55:10.984Z,101597.39
2018-09-05T23:58:15.212Z,101596.52
